Purdue University Airport
KLAF : now visible

Airfield :











YOU CAN JOIN US ON...

 
LOGIN :

Register | Disclaimer

   EN    FR    IT 

 









Legend :    VFR   Marginal VFR   IFR   Intensive IFR   Very Intensive IFR
Visi :
Ceiling :
>= 8 km
>= 3000ft
5 to 8 km
1000 to 3000 ft
1500m to 5 km
500 to 1000 ft
800 to 1500m
200 to 500 ft
< 800m
< 200 ft
Symbols :   Thunderstorms  Fog  Heavy snow  Heavy precipitations  Wind > 20 kt






- Airport Elevation : 606 ft
- IATA code : LAF


KLAF - Purdue University

CURRENT METAR :
  • 141354Z 24011G23KT 10SM CLR 21/08 A2980 RMK AO2 PK WND 23026/1319 SLP088 T02060083

EXPIRED METARs :
  • 141254Z 24013G21KT 10SM CLR 19/08 A2981 RMK AO2 SLP091 T01890083
  • 141154Z 24008KT 10SM CLR 17/09 A2981 RMK AO2 SLP092 T01720089 10172 20139 53001
  • 141054Z 25008KT 10SM CLR 17/09 A2980 RMK AO2 SLP090 T01670089
  • 140954Z AUTO 25006KT 10SM CLR 16/09 A2980 RMK AO2 SLP090 T01610089
  • 140854Z AUTO 22004KT 10SM CLR 16/08 A2981 RMK AO2 SLP091 T01560078 56023

TAF KLAF
Valid from the 14 at 12:00 until the 15 at 12:00 UTC


141120Z 1412/1512 23013KT P6SM SCT150 BKN250 WS015/25045KT
FM141400 24016G25KT P6SM SCT150
FM142100 26011KT P6SM FEW070
FM150200 36006KT P6SM FEW250
KZAU FIR / North America



MET'MAP, your aeronautical weather chart ! - Copyright ORBIFLY December 2007 - Disclaimer

ORBIFLY MET'MAP TEAM :

Programming & Development : Alexandra Zaïnal
Original concept : Baudouin d'Aumeries
Technical & hardware support : Manuel Goepfert
Assistance : Marc-Olivier Méhu




SOURCES & CREDITS :

   NOAA       Earth
Advisory